sensor_id;sensor_type;location;lat;lon;timestamp;P1;durP1;ratioP1;P2;durP2;ratioP2
12451;SDS011;6291;48.924;12.204;2023-07-24T00:04:52;9.50;;;5.32;;
12451;SDS011;6291;48.924;12.204;2023-07-24T00:09:56;10.80;;;5.88;;
12451;SDS011;6291;48.924;12.204;2023-07-24T00:15:01;8.43;;;5.50;;
12451;SDS011;6291;48.924;12.204;2023-07-24T00:20:05;11.00;;;5.47;;
12451;SDS011;6291;48.924;12.204;2023-07-24T00:25:09;11.02;;;5.45;;
12451;SDS011;6291;48.924;12.204;2023-07-24T00:30:14;11.13;;;5.50;;
12451;SDS011;6291;48.924;12.204;2023-07-24T00:35:17;10.53;;;5.47;;
12451;SDS011;6291;48.924;12.204;2023-07-24T00:40:21;8.32;;;5.05;;
12451;SDS011;6291;48.924;12.204;2023-07-24T00:45:25;9.23;;;5.68;;
12451;SDS011;6291;48.924;12.204;2023-07-24T00:50:29;7.57;;;5.63;;
12451;SDS011;6291;48.924;12.204;2023-07-24T00:55:33;11.40;;;5.57;;
12451;SDS011;6291;48.924;12.204;2023-07-24T01:00:39;8.73;;;5.40;;
12451;SDS011;6291;48.924;12.204;2023-07-24T01:05:43;10.93;;;5.83;;
12451;SDS011;6291;48.924;12.204;2023-07-24T01:10:47;9.90;;;5.50;;
12451;SDS011;6291;48.924;12.204;2023-07-24T01:15:54;10.65;;;5.30;;
12451;SDS011;6291;48.924;12.204;2023-07-24T01:21:03;8.80;;;5.30;;
12451;SDS011;6291;48.924;12.204;2023-07-24T01:26:13;7.50;;;5.45;;
12451;SDS011;6291;48.924;12.204;2023-07-24T01:31:18;9.20;;;6.20;;
12451;SDS011;6291;48.924;12.204;2023-07-24T01:36:21;8.43;;;5.50;;
12451;SDS011;6291;48.924;12.204;2023-07-24T01:41:26;8.60;;;5.33;;
12451;SDS011;6291;48.924;12.204;2023-07-24T01:46:30;8.52;;;5.40;;
12451;SDS011;6291;48.924;12.204;2023-07-24T01:51:34;9.40;;;5.70;;
12451;SDS011;6291;48.924;12.204;2023-07-24T01:56:39;8.20;;;5.50;;
12451;SDS011;6291;48.924;12.204;2023-07-24T02:01:42;8.48;;;5.80;;
12451;SDS011;6291;48.924;12.204;2023-07-24T02:06:46;9.15;;;5.88;;
12451;SDS011;6291;48.924;12.204;2023-07-24T02:11:50;9.75;;;5.55;;
12451;SDS011;6291;48.924;12.204;2023-07-24T02:16:54;9.30;;;5.80;;
12451;SDS011;6291;48.924;12.204;2023-07-24T02:21:57;7.97;;;5.60;;
12451;SDS011;6291;48.924;12.204;2023-07-24T02:27:02;11.25;;;6.07;;
12451;SDS011;6291;48.924;12.204;2023-07-24T02:32:07;8.45;;;5.65;;
12451;SDS011;6291;48.924;12.204;2023-07-24T02:37:11;9.10;;;6.10;;
12451;SDS011;6291;48.924;12.204;2023-07-24T02:42:15;7.88;;;5.70;;
12451;SDS011;6291;48.924;12.204;2023-07-24T02:47:19;8.20;;;5.53;;
12451;SDS011;6291;48.924;12.204;2023-07-24T02:52:22;8.35;;;5.57;;
12451;SDS011;6291;48.924;12.204;2023-07-24T02:57:27;10.32;;;5.70;;
12451;SDS011;6291;48.924;12.204;2023-07-24T03:02:31;8.43;;;5.60;;
12451;SDS011;6291;48.924;12.204;2023-07-24T03:07:34;8.30;;;5.47;;
12451;SDS011;6291;48.924;12.204;2023-07-24T03:12:39;7.43;;;5.80;;
12451;SDS011;6291;48.924;12.204;2023-07-24T03:17:42;8.50;;;5.70;;
12451;SDS011;6291;48.924;12.204;2023-07-24T03:22:46;8.88;;;5.88;;
12451;SDS011;6291;48.924;12.204;2023-07-24T03:27:51;12.00;;;6.40;;
12451;SDS011;6291;48.924;12.204;2023-07-24T03:32:54;7.57;;;5.43;;
12451;SDS011;6291;48.924;12.204;2023-07-24T03:37:58;8.75;;;6.10;;
12451;SDS011;6291;48.924;12.204;2023-07-24T03:43:03;9.73;;;6.00;;
12451;SDS011;6291;48.924;12.204;2023-07-24T03:48:06;11.02;;;6.03;;
12451;SDS011;6291;48.924;12.204;2023-07-24T03:53:10;12.07;;;6.57;;
12451;SDS011;6291;48.924;12.204;2023-07-24T03:58:15;11.27;;;5.83;;
12451;SDS011;6291;48.924;12.204;2023-07-24T04:03:18;8.43;;;3.78;;
12451;SDS011;6291;48.924;12.204;2023-07-24T04:08:22;9.38;;;4.72;;
12451;SDS011;6291;48.924;12.204;2023-07-24T04:13:26;7.80;;;4.05;;
12451;SDS011;6291;48.924;12.204;2023-07-24T04:18:30;4.80;;;2.47;;
12451;SDS011;6291;48.924;12.204;2023-07-24T04:23:33;5.00;;;2.35;;
12451;SDS011;6291;48.924;12.204;2023-07-24T04:28:40;4.60;;;2.17;;
12451;SDS011;6291;48.924;12.204;2023-07-24T04:33:43;2.85;;;1.73;;
12451;SDS011;6291;48.924;12.204;2023-07-24T04:38:46;3.67;;;1.60;;
12451;SDS011;6291;48.924;12.204;2023-07-24T04:43:51;2.60;;;1.55;;
12451;SDS011;6291;48.924;12.204;2023-07-24T04:48:54;8.13;;;2.57;;
12451;SDS011;6291;48.924;12.204;2023-07-24T04:53:58;2.97;;;1.40;;
12451;SDS011;6291;48.924;12.204;2023-07-24T04:59:02;2.47;;;1.40;;
12451;SDS011;6291;48.924;12.204;2023-07-24T05:04:06;4.47;;;2.03;;
12451;SDS011;6291;48.924;12.204;2023-07-24T05:09:09;4.10;;;2.13;;
12451;SDS011;6291;48.924;12.204;2023-07-24T05:14:14;7.43;;;1.63;;
12451;SDS011;6291;48.924;12.204;2023-07-24T05:19:17;7.07;;;1.85;;
12451;SDS011;6291;48.924;12.204;2023-07-24T05:24:20;5.00;;;2.17;;
12451;SDS011;6291;48.924;12.204;2023-07-24T05:29:25;2.30;;;2.00;;
12451;SDS011;6291;48.924;12.204;2023-07-24T05:34:29;2.83;;;1.67;;
12451;SDS011;6291;48.924;12.204;2023-07-24T05:39:32;4.50;;;3.05;;
12451;SDS011;6291;48.924;12.204;2023-07-24T05:44:37;10.43;;;4.90;;
12451;SDS011;6291;48.924;12.204;2023-07-24T05:49:41;9.10;;;5.55;;
12451;SDS011;6291;48.924;12.204;2023-07-24T05:54:45;10.73;;;6.15;;
12451;SDS011;6291;48.924;12.204;2023-07-24T05:59:49;11.57;;;6.60;;
12451;SDS011;6291;48.924;12.204;2023-07-24T06:04:53;10.40;;;7.10;;
12451;SDS011;6291;48.924;12.204;2023-07-24T06:09:57;10.27;;;6.63;;
12451;SDS011;6291;48.924;12.204;2023-07-24T06:15:01;10.93;;;6.95;;
12451;SDS011;6291;48.924;12.204;2023-07-24T06:20:06;13.45;;;7.57;;
12451;SDS011;6291;48.924;12.204;2023-07-24T06:25:09;11.73;;;7.70;;
12451;SDS011;6291;48.924;12.204;2023-07-24T06:30:14;11.65;;;7.78;;
12451;SDS011;6291;48.924;12.204;2023-07-24T06:35:18;10.85;;;7.18;;
12451;SDS011;6291;48.924;12.204;2023-07-24T06:40:21;12.27;;;6.90;;
12451;SDS011;6291;48.924;12.204;2023-07-24T06:45:26;11.20;;;7.20;;
12451;SDS011;6291;48.924;12.204;2023-07-24T06:50:29;9.37;;;7.00;;
12451;SDS011;6291;48.924;12.204;2023-07-24T06:55:32;10.82;;;7.72;;
12451;SDS011;6291;48.924;12.204;2023-07-24T07:00:37;9.88;;;7.18;;
12451;SDS011;6291;48.924;12.204;2023-07-24T07:05:41;9.98;;;7.45;;
12451;SDS011;6291;48.924;12.204;2023-07-24T07:10:44;12.33;;;7.80;;
12451;SDS011;6291;48.924;12.204;2023-07-24T07:15:49;12.68;;;8.00;;
12451;SDS011;6291;48.924;12.204;2023-07-24T07:20:53;11.73;;;8.43;;
12451;SDS011;6291;48.924;12.204;2023-07-24T07:25:56;12.57;;;9.10;;
12451;SDS011;6291;48.924;12.204;2023-07-24T07:31:01;14.02;;;8.70;;
12451;SDS011;6291;48.924;12.204;2023-07-24T07:36:04;12.82;;;8.68;;
12451;SDS011;6291;48.924;12.204;2023-07-24T07:41:08;13.50;;;8.90;;
12451;SDS011;6291;48.924;12.204;2023-07-24T07:46:13;10.00;;;7.77;;
12451;SDS011;6291;48.924;12.204;2023-07-24T07:51:16;11.23;;;8.63;;
12451;SDS011;6291;48.924;12.204;2023-07-24T07:56:20;11.38;;;8.75;;
12451;SDS011;6291;48.924;12.204;2023-07-24T08:01:24;14.70;;;8.38;;
12451;SDS011;6291;48.924;12.204;2023-07-24T08:06:28;11.77;;;7.30;;
12451;SDS011;6291;48.924;12.204;2023-07-24T08:11:32;9.98;;;5.95;;
12451;SDS011;6291;48.924;12.204;2023-07-24T08:16:37;10.85;;;7.22;;
12451;SDS011;6291;48.924;12.204;2023-07-24T08:21:40;7.15;;;4.68;;
12451;SDS011;6291;48.924;12.204;2023-07-24T08:26:44;7.25;;;4.97;;
12451;SDS011;6291;48.924;12.204;2023-07-24T08:31:48;7.93;;;4.95;;
12451;SDS011;6291;48.924;12.204;2023-07-24T08:36:52;11.80;;;6.60;;
12451;SDS011;6291;48.924;12.204;2023-07-24T08:41:56;10.55;;;6.85;;
12451;SDS011;6291;48.924;12.204;2023-07-24T08:47:01;12.80;;;8.57;;
12451;SDS011;6291;48.924;12.204;2023-07-24T08:52:06;10.87;;;7.13;;
12451;SDS011;6291;48.924;12.204;2023-07-24T08:57:14;9.50;;;6.88;;
12451;SDS011;6291;48.924;12.204;2023-07-24T09:02:19;6.57;;;4.47;;
12451;SDS011;6291;48.924;12.204;2023-07-24T09:07:23;7.95;;;5.35;;
12451;SDS011;6291;48.924;12.204;2023-07-24T09:12:26;9.18;;;6.30;;
12451;SDS011;6291;48.924;12.204;2023-07-24T09:17:31;7.13;;;4.93;;
12451;SDS011;6291;48.924;12.204;2023-07-24T09:22:34;8.77;;;6.05;;
12451;SDS011;6291;48.924;12.204;2023-07-24T09:27:53;8.30;;;5.90;;
12451;SDS011;6291;48.924;12.204;2023-07-24T09:32:58;7.10;;;4.90;;
12451;SDS011;6291;48.924;12.204;2023-07-24T09:38:03;8.55;;;5.10;;
12451;SDS011;6291;48.924;12.204;2023-07-24T09:43:17;6.23;;;4.40;;
12451;SDS011;6291;48.924;12.204;2023-07-24T09:48:41;5.73;;;4.00;;
12451;SDS011;6291;48.924;12.204;2023-07-24T09:54:06;4.43;;;3.70;;
12451;SDS011;6291;48.924;12.204;2023-07-24T09:59:16;5.07;;;3.30;;
12451;SDS011;6291;48.924;12.204;2023-07-24T10:04:21;4.07;;;3.22;;
12451;SDS011;6291;48.924;12.204;2023-07-24T10:09:26;4.43;;;3.17;;
12451;SDS011;6291;48.924;12.204;2023-07-24T10:14:31;4.00;;;3.50;;
12451;SDS011;6291;48.924;12.204;2023-07-24T10:19:37;4.22;;;3.22;;
12451;SDS011;6291;48.924;12.204;2023-07-24T10:24:44;4.15;;;2.72;;
12451;SDS011;6291;48.924;12.204;2023-07-24T10:29:57;6.38;;;4.20;;
12451;SDS011;6291;48.924;12.204;2023-07-24T10:35:07;5.07;;;4.00;;
12451;SDS011;6291;48.924;12.204;2023-07-24T10:40:18;5.07;;;4.00;;
12451;SDS011;6291;48.924;12.204;2023-07-24T10:45:22;4.22;;;3.47;;
12451;SDS011;6291;48.924;12.204;2023-07-24T10:50:27;6.30;;;3.50;;
12451;SDS011;6291;48.924;12.204;2023-07-24T10:55:39;5.75;;;3.08;;
12451;SDS011;6291;48.924;12.204;2023-07-24T11:00:43;3.30;;;2.97;;
12451;SDS011;6291;48.924;12.204;2023-07-24T11:05:48;4.25;;;3.00;;
12451;SDS011;6291;48.924;12.204;2023-07-24T11:10:53;3.80;;;2.90;;
12451;SDS011;6291;48.924;12.204;2023-07-24T11:15:57;3.78;;;3.15;;
12451;SDS011;6291;48.924;12.204;2023-07-24T11:21:08;5.77;;;3.60;;
12451;SDS011;6291;48.924;12.204;2023-07-24T11:26:14;4.32;;;3.42;;
12451;SDS011;6291;48.924;12.204;2023-07-24T11:31:18;6.18;;;3.70;;
12451;SDS011;6291;48.924;12.204;2023-07-24T11:36:28;5.72;;;3.67;;
12451;SDS011;6291;48.924;12.204;2023-07-24T11:41:31;4.80;;;3.20;;
12451;SDS011;6291;48.924;12.204;2023-07-24T11:46:35;4.97;;;3.45;;
12451;SDS011;6291;48.924;12.204;2023-07-24T11:51:40;4.80;;;3.25;;
12451;SDS011;6291;48.924;12.204;2023-07-24T11:56:43;4.83;;;3.40;;
12451;SDS011;6291;48.924;12.204;2023-07-24T12:01:47;6.72;;;4.18;;
12451;SDS011;6291;48.924;12.204;2023-07-24T12:06:52;4.90;;;3.83;;
12451;SDS011;6291;48.924;12.204;2023-07-24T12:11:57;4.40;;;3.60;;
12451;SDS011;6291;48.924;12.204;2023-07-24T12:17:01;5.73;;;4.10;;
12451;SDS011;6291;48.924;12.204;2023-07-24T12:22:06;4.87;;;3.80;;
12451;SDS011;6291;48.924;12.204;2023-07-24T12:27:10;5.27;;;4.00;;
12451;SDS011;6291;48.924;12.204;2023-07-24T12:32:13;5.53;;;3.92;;
12451;SDS011;6291;48.924;12.204;2023-07-24T12:37:18;5.13;;;4.03;;
12451;SDS011;6291;48.924;12.204;2023-07-24T12:42:22;5.57;;;3.65;;
12451;SDS011;6291;48.924;12.204;2023-07-24T12:47:25;4.80;;;4.20;;
12451;SDS011;6291;48.924;12.204;2023-07-24T12:52:30;7.97;;;4.10;;
12451;SDS011;6291;48.924;12.204;2023-07-24T12:57:34;6.18;;;4.03;;
12451;SDS011;6291;48.924;12.204;2023-07-24T13:02:37;7.57;;;5.07;;
12451;SDS011;6291;48.924;12.204;2023-07-24T13:07:42;6.82;;;4.57;;
12451;SDS011;6291;48.924;12.204;2023-07-24T13:12:47;4.88;;;3.42;;
12451;SDS011;6291;48.924;12.204;2023-07-24T13:17:51;8.83;;;5.67;;
12451;SDS011;6291;48.924;12.204;2023-07-24T13:22:55;7.50;;;5.57;;
12451;SDS011;6291;48.924;12.204;2023-07-24T13:27:59;8.67;;;5.63;;
12451;SDS011;6291;48.924;12.204;2023-07-24T13:33:02;7.82;;;5.50;;
12451;SDS011;6291;48.924;12.204;2023-07-24T13:38:07;7.22;;;5.55;;
12451;SDS011;6291;48.924;12.204;2023-07-24T13:43:10;7.00;;;5.27;;
12451;SDS011;6291;48.924;12.204;2023-07-24T13:48:14;6.63;;;4.97;;
12451;SDS011;6291;48.924;12.204;2023-07-24T13:53:18;6.78;;;4.78;;
12451;SDS011;6291;48.924;12.204;2023-07-24T13:58:22;5.80;;;4.75;;
12451;SDS011;6291;48.924;12.204;2023-07-24T14:03:25;6.00;;;4.30;;
12451;SDS011;6291;48.924;12.204;2023-07-24T14:08:32;7.33;;;4.80;;
12451;SDS011;6291;48.924;12.204;2023-07-24T14:13:35;7.07;;;4.73;;
12451;SDS011;6291;48.924;12.204;2023-07-24T14:18:39;5.43;;;4.40;;
12451;SDS011;6291;48.924;12.204;2023-07-24T14:23:44;6.43;;;4.78;;
12451;SDS011;6291;48.924;12.204;2023-07-24T14:28:47;7.80;;;4.60;;
12451;SDS011;6291;48.924;12.204;2023-07-24T14:33:50;6.40;;;4.65;;
12451;SDS011;6291;48.924;12.204;2023-07-24T14:38:55;6.90;;;4.90;;
12451;SDS011;6291;48.924;12.204;2023-07-24T14:43:58;6.65;;;5.03;;
12451;SDS011;6291;48.924;12.204;2023-07-24T14:49:02;5.80;;;4.88;;
12451;SDS011;6291;48.924;12.204;2023-07-24T14:54:06;6.30;;;4.83;;
12451;SDS011;6291;48.924;12.204;2023-07-24T14:59:10;7.07;;;4.32;;
12451;SDS011;6291;48.924;12.204;2023-07-24T15:04:13;6.27;;;4.60;;
12451;SDS011;6291;48.924;12.204;2023-07-24T15:09:18;6.43;;;4.53;;
12451;SDS011;6291;48.924;12.204;2023-07-24T15:14:21;5.63;;;4.65;;
12451;SDS011;6291;48.924;12.204;2023-07-24T15:19:26;5.68;;;4.40;;
12451;SDS011;6291;48.924;12.204;2023-07-24T15:24:31;7.33;;;3.97;;
12451;SDS011;6291;48.924;12.204;2023-07-24T15:29:34;6.30;;;4.60;;
12451;SDS011;6291;48.924;12.204;2023-07-24T15:34:38;5.13;;;4.00;;
12451;SDS011;6291;48.924;12.204;2023-07-24T15:39:47;6.05;;;4.40;;
12451;SDS011;6291;48.924;12.204;2023-07-24T15:44:51;5.32;;;4.22;;
12451;SDS011;6291;48.924;12.204;2023-07-24T15:49:54;5.60;;;4.47;;
12451;SDS011;6291;48.924;12.204;2023-07-24T15:54:59;7.35;;;4.43;;
12451;SDS011;6291;48.924;12.204;2023-07-24T16:00:03;5.78;;;3.70;;
12451;SDS011;6291;48.924;12.204;2023-07-24T16:05:16;6.43;;;4.37;;
12451;SDS011;6291;48.924;12.204;2023-07-24T16:10:21;5.38;;;4.50;;
12451;SDS011;6291;48.924;12.204;2023-07-24T16:15:25;4.78;;;4.25;;
12451;SDS011;6291;48.924;12.204;2023-07-24T16:20:31;5.50;;;4.18;;
12451;SDS011;6291;48.924;12.204;2023-07-24T16:25:38;6.90;;;3.70;;
12451;SDS011;6291;48.924;12.204;2023-07-24T16:30:41;4.03;;;2.75;;
12451;SDS011;6291;48.924;12.204;2023-07-24T16:35:45;3.70;;;2.90;;
12451;SDS011;6291;48.924;12.204;2023-07-24T16:40:50;3.65;;;2.10;;
12451;SDS011;6291;48.924;12.204;2023-07-24T16:45:55;2.50;;;2.10;;
12451;SDS011;6291;48.924;12.204;2023-07-24T16:51:01;3.92;;;3.33;;
12451;SDS011;6291;48.924;12.204;2023-07-24T16:56:06;2.63;;;2.20;;
12451;SDS011;6291;48.924;12.204;2023-07-24T17:01:09;2.85;;;2.28;;
12451;SDS011;6291;48.924;12.204;2023-07-24T17:06:13;2.00;;;1.80;;
12451;SDS011;6291;48.924;12.204;2023-07-24T17:11:18;2.80;;;2.08;;
12451;SDS011;6291;48.924;12.204;2023-07-24T17:16:21;2.95;;;1.92;;
12451;SDS011;6291;48.924;12.204;2023-07-24T17:21:25;2.83;;;2.10;;
12451;SDS011;6291;48.924;12.204;2023-07-24T17:26:32;2.08;;;1.85;;
12451;SDS011;6291;48.924;12.204;2023-07-24T17:31:36;2.80;;;2.17;;
12451;SDS011;6291;48.924;12.204;2023-07-24T17:36:46;2.33;;;1.85;;
12451;SDS011;6291;48.924;12.204;2023-07-24T17:41:51;3.65;;;1.90;;
12451;SDS011;6291;48.924;12.204;2023-07-24T17:46:55;2.85;;;1.95;;
12451;SDS011;6291;48.924;12.204;2023-07-24T17:52:00;2.60;;;1.90;;
12451;SDS011;6291;48.924;12.204;2023-07-24T17:57:11;3.33;;;2.20;;
12451;SDS011;6291;48.924;12.204;2023-07-24T18:02:15;2.97;;;2.20;;
12451;SDS011;6291;48.924;12.204;2023-07-24T18:07:19;3.60;;;2.42;;
12451;SDS011;6291;48.924;12.204;2023-07-24T18:12:25;2.80;;;2.20;;
12451;SDS011;6291;48.924;12.204;2023-07-24T18:17:29;3.47;;;2.57;;
12451;SDS011;6291;48.924;12.204;2023-07-24T18:22:34;3.07;;;2.60;;
12451;SDS011;6291;48.924;12.204;2023-07-24T18:27:39;4.65;;;2.97;;
12451;SDS011;6291;48.924;12.204;2023-07-24T18:32:43;4.10;;;2.83;;
12451;SDS011;6291;48.924;12.204;2023-07-24T18:37:46;3.72;;;2.63;;
12451;SDS011;6291;48.924;12.204;2023-07-24T18:42:51;3.40;;;2.78;;
12451;SDS011;6291;48.924;12.204;2023-07-24T18:47:55;4.28;;;2.97;;
12451;SDS011;6291;48.924;12.204;2023-07-24T18:52:59;8.00;;;3.70;;
12451;SDS011;6291;48.924;12.204;2023-07-24T18:58:04;5.05;;;3.10;;
12451;SDS011;6291;48.924;12.204;2023-07-24T19:03:08;4.87;;;3.10;;
12451;SDS011;6291;48.924;12.204;2023-07-24T19:08:12;4.77;;;3.53;;
12451;SDS011;6291;48.924;12.204;2023-07-24T19:13:17;4.40;;;3.22;;
12451;SDS011;6291;48.924;12.204;2023-07-24T19:18:20;5.20;;;3.40;;
12451;SDS011;6291;48.924;12.204;2023-07-24T19:23:23;4.50;;;3.22;;
12451;SDS011;6291;48.924;12.204;2023-07-24T19:28:28;5.18;;;3.83;;
12451;SDS011;6291;48.924;12.204;2023-07-24T19:33:31;4.38;;;3.60;;
12451;SDS011;6291;48.924;12.204;2023-07-24T19:38:35;6.03;;;3.88;;
12451;SDS011;6291;48.924;12.204;2023-07-24T19:43:39;4.63;;;3.50;;
12451;SDS011;6291;48.924;12.204;2023-07-24T19:48:43;5.43;;;4.03;;
12451;SDS011;6291;48.924;12.204;2023-07-24T19:53:47;4.55;;;3.28;;
12451;SDS011;6291;48.924;12.204;2023-07-24T19:58:51;5.00;;;3.40;;
12451;SDS011;6291;48.924;12.204;2023-07-24T20:03:55;3.57;;;3.10;;
12451;SDS011;6291;48.924;12.204;2023-07-24T20:08:59;5.78;;;3.65;;
12451;SDS011;6291;48.924;12.204;2023-07-24T20:14:05;4.90;;;3.65;;
12451;SDS011;6291;48.924;12.204;2023-07-24T20:19:09;5.97;;;4.00;;
12451;SDS011;6291;48.924;12.204;2023-07-24T20:24:13;5.22;;;3.47;;
12451;SDS011;6291;48.924;12.204;2023-07-24T20:29:19;5.13;;;3.53;;
12451;SDS011;6291;48.924;12.204;2023-07-24T20:34:24;5.37;;;3.87;;
12451;SDS011;6291;48.924;12.204;2023-07-24T20:39:32;9.10;;;5.17;;
12451;SDS011;6291;48.924;12.204;2023-07-24T20:44:41;4.63;;;3.03;;
12451;SDS011;6291;48.924;12.204;2023-07-24T20:49:52;4.05;;;3.10;;
12451;SDS011;6291;48.924;12.204;2023-07-24T20:54:56;4.70;;;3.17;;
12451;SDS011;6291;48.924;12.204;2023-07-24T21:00:01;4.07;;;2.85;;
12451;SDS011;6291;48.924;12.204;2023-07-24T21:05:05;3.70;;;2.87;;
12451;SDS011;6291;48.924;12.204;2023-07-24T21:10:10;4.38;;;3.08;;
12451;SDS011;6291;48.924;12.204;2023-07-24T21:15:15;4.10;;;2.73;;
12451;SDS011;6291;48.924;12.204;2023-07-24T21:20:18;4.97;;;3.00;;
12451;SDS011;6291;48.924;12.204;2023-07-24T21:25:23;4.38;;;2.67;;
12451;SDS011;6291;48.924;12.204;2023-07-24T21:30:28;5.05;;;3.20;;
12451;SDS011;6291;48.924;12.204;2023-07-24T21:35:31;1.08;;;0.98;;
12451;SDS011;6291;48.924;12.204;2023-07-24T21:40:35;2.92;;;1.20;;
12451;SDS011;6291;48.924;12.204;2023-07-24T21:45:41;1.80;;;1.10;;
12451;SDS011;6291;48.924;12.204;2023-07-24T21:50:50;2.88;;;0.65;;
12451;SDS011;6291;48.924;12.204;2023-07-24T21:55:54;2.90;;;1.30;;
12451;SDS011;6291;48.924;12.204;2023-07-24T22:00:59;1.30;;;0.80;;
12451;SDS011;6291;48.924;12.204;2023-07-24T22:06:03;2.28;;;1.23;;
12451;SDS011;6291;48.924;12.204;2023-07-24T22:11:08;4.72;;;1.25;;
12451;SDS011;6291;48.924;12.204;2023-07-24T22:16:13;4.00;;;1.30;;
12451;SDS011;6291;48.924;12.204;2023-07-24T22:21:17;3.53;;;1.50;;
12451;SDS011;6291;48.924;12.204;2023-07-24T22:26:20;2.25;;;1.25;;
12451;SDS011;6291;48.924;12.204;2023-07-24T22:31:25;3.40;;;1.33;;
12451;SDS011;6291;48.924;12.204;2023-07-24T22:36:29;1.77;;;1.07;;
12451;SDS011;6291;48.924;12.204;2023-07-24T22:41:34;1.53;;;1.30;;
12451;SDS011;6291;48.924;12.204;2023-07-24T22:46:39;2.70;;;1.70;;
12451;SDS011;6291;48.924;12.204;2023-07-24T22:51:43;2.08;;;1.70;;
12451;SDS011;6291;48.924;12.204;2023-07-24T22:56:46;3.83;;;2.33;;
12451;SDS011;6291;48.924;12.204;2023-07-24T23:01:51;4.43;;;2.25;;
12451;SDS011;6291;48.924;12.204;2023-07-24T23:06:55;3.90;;;2.80;;
12451;SDS011;6291;48.924;12.204;2023-07-24T23:12:01;4.75;;;2.90;;
12451;SDS011;6291;48.924;12.204;2023-07-24T23:17:05;4.47;;;2.65;;
12451;SDS011;6291;48.924;12.204;2023-07-24T23:22:09;6.00;;;2.87;;
12451;SDS011;6291;48.924;12.204;2023-07-24T23:27:12;4.15;;;2.88;;
12451;SDS011;6291;48.924;12.204;2023-07-24T23:32:17;3.43;;;2.63;;
12451;SDS011;6291;48.924;12.204;2023-07-24T23:37:21;4.78;;;2.63;;
12451;SDS011;6291;48.924;12.204;2023-07-24T23:42:24;3.67;;;2.70;;
12451;SDS011;6291;48.924;12.204;2023-07-24T23:47:37;4.37;;;3.30;;
12451;SDS011;6291;48.924;12.204;2023-07-24T23:52:41;3.58;;;3.15;;
12451;SDS011;6291;48.924;12.204;2023-07-24T23:57:47;4.13;;;2.97;;
